sensor_id;sensor_type;location;lat;lon;timestamp;temperature;humidity
37702;DHT22;23548;51.196;6.838;2023-01-28T00:02:23;4.20;99.90
37702;DHT22;23548;51.196;6.838;2023-01-28T00:04:50;4.20;99.90
37702;DHT22;23548;51.196;6.838;2023-01-28T00:07:18;4.20;99.90
37702;DHT22;23548;51.196;6.838;2023-01-28T00:09:46;4.20;99.90
37702;DHT22;23548;51.196;6.838;2023-01-28T00:12:13;4.00;99.90
37702;DHT22;23548;51.196;6.838;2023-01-28T00:14:44;4.10;99.90
37702;DHT22;23548;51.196;6.838;2023-01-28T00:17:14;4.20;99.90
37702;DHT22;23548;51.196;6.838;2023-01-28T00:19:42;4.20;99.90
37702;DHT22;23548;51.196;6.838;2023-01-28T00:22:14;4.20;99.90
37702;DHT22;23548;51.196;6.838;2023-01-28T00:24:48;4.20;99.90
37702;DHT22;23548;51.196;6.838;2023-01-28T00:27:16;4.20;99.90
37702;DHT22;23548;51.196;6.838;2023-01-28T00:29:45;4.10;99.90
37702;DHT22;23548;51.196;6.838;2023-01-28T00:32:16;3.90;99.90
37702;DHT22;23548;51.196;6.838;2023-01-28T00:34:45;3.90;99.90
37702;DHT22;23548;51.196;6.838;2023-01-28T00:37:25;3.80;99.90
37702;DHT22;23548;51.196;6.838;2023-01-28T00:40:11;3.90;99.90
37702;DHT22;23548;51.196;6.838;2023-01-28T00:42:57;4.00;99.90
37702;DHT22;23548;51.196;6.838;2023-01-28T00:45:30;3.90;99.90
37702;DHT22;23548;51.196;6.838;2023-01-28T00:48:09;3.90;99.90
37702;DHT22;23548;51.196;6.838;2023-01-28T00:50:47;3.90;99.90
37702;DHT22;23548;51.196;6.838;2023-01-28T00:53:21;3.80;99.90
37702;DHT22;23548;51.196;6.838;2023-01-28T00:55:50;3.90;99.90
37702;DHT22;23548;51.196;6.838;2023-01-28T00:58:17;3.80;99.90
37702;DHT22;23548;51.196;6.838;2023-01-28T01:00:43;3.90;99.90
37702;DHT22;23548;51.196;6.838;2023-01-28T01:03:09;3.80;99.90
37702;DHT22;23548;51.196;6.838;2023-01-28T01:05:35;3.80;99.90
37702;DHT22;23548;51.196;6.838;2023-01-28T01:08:00;3.80;99.90
37702;DHT22;23548;51.196;6.838;2023-01-28T01:10:26;3.80;99.90
37702;DHT22;23548;51.196;6.838;2023-01-28T01:12:52;3.80;99.90
37702;DHT22;23548;51.196;6.838;2023-01-28T01:15:18;3.80;99.90
37702;DHT22;23548;51.196;6.838;2023-01-28T01:17:46;3.80;99.90
37702;DHT22;23548;51.196;6.838;2023-01-28T01:20:21;3.80;99.90
37702;DHT22;23548;51.196;6.838;2023-01-28T01:22:47;3.70;99.90
37702;DHT22;23548;51.196;6.838;2023-01-28T01:25:14;3.70;99.90
37702;DHT22;23548;51.196;6.838;2023-01-28T01:27:41;3.70;99.90
37702;DHT22;23548;51.196;6.838;2023-01-28T01:30:08;3.60;99.90
37702;DHT22;23548;51.196;6.838;2023-01-28T01:32:33;3.70;99.90
37702;DHT22;23548;51.196;6.838;2023-01-28T01:35:00;3.60;99.90
37702;DHT22;23548;51.196;6.838;2023-01-28T01:37:26;3.60;99.90
37702;DHT22;23548;51.196;6.838;2023-01-28T01:39:52;3.60;99.90
37702;DHT22;23548;51.196;6.838;2023-01-28T01:42:18;3.40;99.90
37702;DHT22;23548;51.196;6.838;2023-01-28T01:44:56;3.40;99.90
37702;DHT22;23548;51.196;6.838;2023-01-28T01:50:17;3.40;99.90
37702;DHT22;23548;51.196;6.838;2023-01-28T01:52:49;3.30;99.90
37702;DHT22;23548;51.196;6.838;2023-01-28T01:55:18;3.30;99.90
37702;DHT22;23548;51.196;6.838;2023-01-28T01:57:45;3.30;99.90
37702;DHT22;23548;51.196;6.838;2023-01-28T02:00:12;3.20;99.90
37702;DHT22;23548;51.196;6.838;2023-01-28T02:05:59;3.20;99.90
37702;DHT22;23548;51.196;6.838;2023-01-28T02:08:25;3.30;99.90
37702;DHT22;23548;51.196;6.838;2023-01-28T02:10:55;3.30;99.90
37702;DHT22;23548;51.196;6.838;2023-01-28T02:13:27;3.40;99.90
37702;DHT22;23548;51.196;6.838;2023-01-28T02:15:54;3.30;99.90
37702;DHT22;23548;51.196;6.838;2023-01-28T02:18:22;3.40;99.90
37702;DHT22;23548;51.196;6.838;2023-01-28T02:26:36;3.30;99.90
37702;DHT22;23548;51.196;6.838;2023-01-28T02:34:33;3.30;99.90
37702;DHT22;23548;51.196;6.838;2023-01-28T02:37:21;3.30;99.90
37702;DHT22;23548;51.196;6.838;2023-01-28T02:40:19;3.30;99.90
37702;DHT22;23548;51.196;6.838;2023-01-28T02:42:47;3.40;99.90
37702;DHT22;23548;51.196;6.838;2023-01-28T02:45:20;3.40;99.90
37702;DHT22;23548;51.196;6.838;2023-01-28T02:47:46;3.40;99.90
37702;DHT22;23548;51.196;6.838;2023-01-28T02:50:39;3.40;99.90
37702;DHT22;23548;51.196;6.838;2023-01-28T02:53:26;3.40;99.90
37702;DHT22;23548;51.196;6.838;2023-01-28T02:56:28;3.40;99.90
37702;DHT22;23548;51.196;6.838;2023-01-28T03:04:45;3.40;99.90
37702;DHT22;23548;51.196;6.838;2023-01-28T03:07:14;3.40;99.90
37702;DHT22;23548;51.196;6.838;2023-01-28T03:09:42;3.40;99.90
37702;DHT22;23548;51.196;6.838;2023-01-28T03:12:17;3.30;99.90
37702;DHT22;23548;51.196;6.838;2023-01-28T03:15:07;3.30;99.90
37702;DHT22;23548;51.196;6.838;2023-01-28T03:18:14;3.30;99.90
37702;DHT22;23548;51.196;6.838;2023-01-28T03:21:21;3.30;99.90
37702;DHT22;23548;51.196;6.838;2023-01-28T03:24:16;3.30;99.90
37702;DHT22;23548;51.196;6.838;2023-01-28T03:30:02;3.30;99.90
37702;DHT22;23548;51.196;6.838;2023-01-28T03:32:47;3.30;99.90
37702;DHT22;23548;51.196;6.838;2023-01-28T03:35:33;3.30;99.90
37702;DHT22;23548;51.196;6.838;2023-01-28T03:38:19;3.30;99.90
37702;DHT22;23548;51.196;6.838;2023-01-28T03:41:01;3.30;99.90
37702;DHT22;23548;51.196;6.838;2023-01-28T03:43:28;3.20;99.90
37702;DHT22;23548;51.196;6.838;2023-01-28T03:45:54;3.20;99.90
37702;DHT22;23548;51.196;6.838;2023-01-28T03:48:22;3.30;99.90
37702;DHT22;23548;51.196;6.838;2023-01-28T03:50:48;3.30;99.90
37702;DHT22;23548;51.196;6.838;2023-01-28T03:53:16;3.20;99.90
37702;DHT22;23548;51.196;6.838;2023-01-28T03:55:43;3.30;99.90
37702;DHT22;23548;51.196;6.838;2023-01-28T03:58:10;3.20;99.90
37702;DHT22;23548;51.196;6.838;2023-01-28T04:00:37;3.10;99.90
37702;DHT22;23548;51.196;6.838;2023-01-28T04:03:10;3.10;99.90
37702;DHT22;23548;51.196;6.838;2023-01-28T04:05:56;3.10;99.90
37702;DHT22;23548;51.196;6.838;2023-01-28T04:08:22;3.10;99.90
37702;DHT22;23548;51.196;6.838;2023-01-28T04:10:48;3.10;99.90
37702;DHT22;23548;51.196;6.838;2023-01-28T04:13:14;3.20;99.90
37702;DHT22;23548;51.196;6.838;2023-01-28T04:15:41;3.20;99.90
37702;DHT22;23548;51.196;6.838;2023-01-28T04:18:08;3.10;99.90
37702;DHT22;23548;51.196;6.838;2023-01-28T04:20:34;3.10;99.90
37702;DHT22;23548;51.196;6.838;2023-01-28T04:23:00;3.10;99.90
37702;DHT22;23548;51.196;6.838;2023-01-28T04:25:26;3.10;99.90
37702;DHT22;23548;51.196;6.838;2023-01-28T04:27:52;3.10;99.90
37702;DHT22;23548;51.196;6.838;2023-01-28T04:30:18;3.10;99.90
37702;DHT22;23548;51.196;6.838;2023-01-28T04:32:45;3.10;99.90
37702;DHT22;23548;51.196;6.838;2023-01-28T04:35:11;3.10;99.90
37702;DHT22;23548;51.196;6.838;2023-01-28T04:37:39;3.10;99.90
37702;DHT22;23548;51.196;6.838;2023-01-28T04:40:05;3.10;99.90
37702;DHT22;23548;51.196;6.838;2023-01-28T04:42:31;3.10;99.90
37702;DHT22;23548;51.196;6.838;2023-01-28T04:44:57;3.10;99.90
37702;DHT22;23548;51.196;6.838;2023-01-28T04:47:22;3.10;99.90
37702;DHT22;23548;51.196;6.838;2023-01-28T04:49:48;3.10;99.90
37702;DHT22;23548;51.196;6.838;2023-01-28T04:52:14;3.10;99.90
37702;DHT22;23548;51.196;6.838;2023-01-28T04:54:40;3.10;99.90
37702;DHT22;23548;51.196;6.838;2023-01-28T04:57:06;3.10;99.90
37702;DHT22;23548;51.196;6.838;2023-01-28T04:59:31;3.10;99.90
37702;DHT22;23548;51.196;6.838;2023-01-28T05:01:57;3.00;99.90
37702;DHT22;23548;51.196;6.838;2023-01-28T05:04:23;3.10;99.90
37702;DHT22;23548;51.196;6.838;2023-01-28T05:06:49;3.00;99.90
37702;DHT22;23548;51.196;6.838;2023-01-28T05:09:15;3.10;99.90
37702;DHT22;23548;51.196;6.838;2023-01-28T05:11:40;3.00;99.90
37702;DHT22;23548;51.196;6.838;2023-01-28T05:14:06;3.00;99.90
37702;DHT22;23548;51.196;6.838;2023-01-28T05:16:32;3.00;99.90
37702;DHT22;23548;51.196;6.838;2023-01-28T05:19:00;3.00;99.90
37702;DHT22;23548;51.196;6.838;2023-01-28T05:21:26;3.00;99.90
37702;DHT22;23548;51.196;6.838;2023-01-28T05:23:52;3.00;99.90
37702;DHT22;23548;51.196;6.838;2023-01-28T05:26:17;3.00;99.90
37702;DHT22;23548;51.196;6.838;2023-01-28T05:28:43;3.00;99.90
37702;DHT22;23548;51.196;6.838;2023-01-28T05:31:09;3.00;99.90
37702;DHT22;23548;51.196;6.838;2023-01-28T05:33:35;3.00;99.90
37702;DHT22;23548;51.196;6.838;2023-01-28T05:36:01;3.00;99.90
37702;DHT22;23548;51.196;6.838;2023-01-28T05:38:27;3.00;99.90
37702;DHT22;23548;51.196;6.838;2023-01-28T05:40:53;2.90;99.90
37702;DHT22;23548;51.196;6.838;2023-01-28T05:43:19;2.40;99.90
37702;DHT22;23548;51.196;6.838;2023-01-28T05:45:45;2.90;99.90
37702;DHT22;23548;51.196;6.838;2023-01-28T05:48:12;3.00;99.90
37702;DHT22;23548;51.196;6.838;2023-01-28T05:50:37;3.00;99.90
37702;DHT22;23548;51.196;6.838;2023-01-28T05:53:07;3.00;99.90
37702;DHT22;23548;51.196;6.838;2023-01-28T05:55:33;3.00;99.90
37702;DHT22;23548;51.196;6.838;2023-01-28T05:57:59;3.00;99.90
37702;DHT22;23548;51.196;6.838;2023-01-28T06:00:25;3.00;99.90
37702;DHT22;23548;51.196;6.838;2023-01-28T06:02:51;3.00;99.90
37702;DHT22;23548;51.196;6.838;2023-01-28T06:05:17;3.00;99.90
37702;DHT22;23548;51.196;6.838;2023-01-28T06:07:46;3.00;99.90
37702;DHT22;23548;51.196;6.838;2023-01-28T06:10:13;3.00;99.90
37702;DHT22;23548;51.196;6.838;2023-01-28T06:12:39;2.90;99.90
37702;DHT22;23548;51.196;6.838;2023-01-28T06:15:05;3.00;99.90
37702;DHT22;23548;51.196;6.838;2023-01-28T06:17:31;3.00;99.90
37702;DHT22;23548;51.196;6.838;2023-01-28T06:19:57;3.00;99.90
37702;DHT22;23548;51.196;6.838;2023-01-28T06:22:22;2.90;99.90
37702;DHT22;23548;51.196;6.838;2023-01-28T06:24:48;2.90;99.90
37702;DHT22;23548;51.196;6.838;2023-01-28T06:27:14;2.80;99.90
37702;DHT22;23548;51.196;6.838;2023-01-28T06:29:40;2.60;99.90
37702;DHT22;23548;51.196;6.838;2023-01-28T06:32:05;2.70;99.90
37702;DHT22;23548;51.196;6.838;2023-01-28T06:34:31;2.80;99.90
37702;DHT22;23548;51.196;6.838;2023-01-28T06:36:57;2.80;99.90
37702;DHT22;23548;51.196;6.838;2023-01-28T06:39:23;2.90;99.90
37702;DHT22;23548;51.196;6.838;2023-01-28T06:41:51;2.90;99.90
37702;DHT22;23548;51.196;6.838;2023-01-28T06:44:17;2.80;99.90
37702;DHT22;23548;51.196;6.838;2023-01-28T06:46:43;2.80;99.90
37702;DHT22;23548;51.196;6.838;2023-01-28T06:49:09;2.80;99.90
37702;DHT22;23548;51.196;6.838;2023-01-28T06:51:34;2.70;99.90
37702;DHT22;23548;51.196;6.838;2023-01-28T06:54:00;2.80;99.90
37702;DHT22;23548;51.196;6.838;2023-01-28T06:56:26;2.80;99.90
37702;DHT22;23548;51.196;6.838;2023-01-28T06:58:52;2.80;99.90
37702;DHT22;23548;51.196;6.838;2023-01-28T07:01:17;2.80;99.90
37702;DHT22;23548;51.196;6.838;2023-01-28T07:03:43;2.70;99.90
37702;DHT22;23548;51.196;6.838;2023-01-28T07:06:09;2.60;99.90
37702;DHT22;23548;51.196;6.838;2023-01-28T07:08:35;2.60;99.90
37702;DHT22;23548;51.196;6.838;2023-01-28T07:11:02;2.50;99.90
37702;DHT22;23548;51.196;6.838;2023-01-28T07:13:29;2.50;99.90
37702;DHT22;23548;51.196;6.838;2023-01-28T07:15:54;2.60;99.90
37702;DHT22;23548;51.196;6.838;2023-01-28T07:18:20;2.60;99.90
37702;DHT22;23548;51.196;6.838;2023-01-28T07:20:46;2.70;99.90
37702;DHT22;23548;51.196;6.838;2023-01-28T07:23:12;2.70;99.90
37702;DHT22;23548;51.196;6.838;2023-01-28T07:25:38;2.60;99.90
37702;DHT22;23548;51.196;6.838;2023-01-28T07:28:04;2.60;99.90
37702;DHT22;23548;51.196;6.838;2023-01-28T07:30:30;2.60;99.90
37702;DHT22;23548;51.196;6.838;2023-01-28T07:32:57;2.60;99.90
37702;DHT22;23548;51.196;6.838;2023-01-28T07:35:24;2.70;99.90
37702;DHT22;23548;51.196;6.838;2023-01-28T07:37:51;2.60;99.90
37702;DHT22;23548;51.196;6.838;2023-01-28T07:40:17;2.60;99.90
37702;DHT22;23548;51.196;6.838;2023-01-28T07:42:43;2.70;99.90
37702;DHT22;23548;51.196;6.838;2023-01-28T07:45:09;2.60;99.90
37702;DHT22;23548;51.196;6.838;2023-01-28T07:47:35;2.60;99.90
37702;DHT22;23548;51.196;6.838;2023-01-28T07:50:01;2.60;99.90
37702;DHT22;23548;51.196;6.838;2023-01-28T07:52:27;2.70;99.90
37702;DHT22;23548;51.196;6.838;2023-01-28T07:54:52;2.70;99.90
37702;DHT22;23548;51.196;6.838;2023-01-28T07:57:18;2.70;99.90
37702;DHT22;23548;51.196;6.838;2023-01-28T07:59:50;2.70;99.90
37702;DHT22;23548;51.196;6.838;2023-01-28T08:02:17;2.60;99.90
37702;DHT22;23548;51.196;6.838;2023-01-28T08:04:43;2.60;99.90
37702;DHT22;23548;51.196;6.838;2023-01-28T08:07:09;2.40;99.90
37702;DHT22;23548;51.196;6.838;2023-01-28T08:09:34;2.60;99.90
37702;DHT22;23548;51.196;6.838;2023-01-28T08:12:00;2.70;99.90
37702;DHT22;23548;51.196;6.838;2023-01-28T08:14:27;2.70;99.90
37702;DHT22;23548;51.196;6.838;2023-01-28T08:16:53;2.80;99.90
37702;DHT22;23548;51.196;6.838;2023-01-28T08:19:19;2.90;99.90
37702;DHT22;23548;51.196;6.838;2023-01-28T08:21:49;3.00;99.90
37702;DHT22;23548;51.196;6.838;2023-01-28T08:24:16;3.00;99.90
37702;DHT22;23548;51.196;6.838;2023-01-28T08:26:42;3.00;99.90
37702;DHT22;23548;51.196;6.838;2023-01-28T08:29:08;3.00;99.90
37702;DHT22;23548;51.196;6.838;2023-01-28T08:31:33;3.00;99.90
37702;DHT22;23548;51.196;6.838;2023-01-28T08:33:59;3.10;99.90
37702;DHT22;23548;51.196;6.838;2023-01-28T08:36:25;3.00;99.90
37702;DHT22;23548;51.196;6.838;2023-01-28T08:38:52;3.10;99.90
37702;DHT22;23548;51.196;6.838;2023-01-28T08:41:20;3.00;99.90
37702;DHT22;23548;51.196;6.838;2023-01-28T08:43:46;2.90;99.90
37702;DHT22;23548;51.196;6.838;2023-01-28T08:46:12;3.00;99.90
37702;DHT22;23548;51.196;6.838;2023-01-28T08:48:38;3.20;99.90
37702;DHT22;23548;51.196;6.838;2023-01-28T08:51:04;3.20;99.90
37702;DHT22;23548;51.196;6.838;2023-01-28T08:53:30;3.20;99.90
37702;DHT22;23548;51.196;6.838;2023-01-28T08:55:56;3.10;99.90
37702;DHT22;23548;51.196;6.838;2023-01-28T08:58:22;3.20;99.90
37702;DHT22;23548;51.196;6.838;2023-01-28T09:00:48;3.30;99.90
37702;DHT22;23548;51.196;6.838;2023-01-28T09:03:14;3.30;99.90
37702;DHT22;23548;51.196;6.838;2023-01-28T09:05:40;3.20;99.90
37702;DHT22;23548;51.196;6.838;2023-01-28T09:08:08;3.20;99.90
37702;DHT22;23548;51.196;6.838;2023-01-28T09:10:35;3.30;99.90
37702;DHT22;23548;51.196;6.838;2023-01-28T09:13:13;3.30;99.90
37702;DHT22;23548;51.196;6.838;2023-01-28T09:15:40;3.20;99.90
37702;DHT22;23548;51.196;6.838;2023-01-28T09:18:05;3.10;99.90
37702;DHT22;23548;51.196;6.838;2023-01-28T09:20:31;3.10;99.90
37702;DHT22;23548;51.196;6.838;2023-01-28T09:22:58;3.00;99.90
37702;DHT22;23548;51.196;6.838;2023-01-28T09:25:24;3.00;99.90
37702;DHT22;23548;51.196;6.838;2023-01-28T09:27:49;3.00;99.90
37702;DHT22;23548;51.196;6.838;2023-01-28T09:30:15;3.10;99.90
37702;DHT22;23548;51.196;6.838;2023-01-28T09:32:41;3.10;99.90
37702;DHT22;23548;51.196;6.838;2023-01-28T09:35:08;3.10;99.90
37702;DHT22;23548;51.196;6.838;2023-01-28T09:37:34;3.20;99.90
37702;DHT22;23548;51.196;6.838;2023-01-28T09:40:00;3.40;99.90
37702;DHT22;23548;51.196;6.838;2023-01-28T09:42:52;3.30;99.90
37702;DHT22;23548;51.196;6.838;2023-01-28T09:45:24;3.40;99.90
37702;DHT22;23548;51.196;6.838;2023-01-28T09:47:57;3.50;99.90
37702;DHT22;23548;51.196;6.838;2023-01-28T09:50:35;3.20;99.90
37702;DHT22;23548;51.196;6.838;2023-01-28T09:53:22;3.20;99.90
37702;DHT22;23548;51.196;6.838;2023-01-28T09:55:59;3.20;99.90
37702;DHT22;23548;51.196;6.838;2023-01-28T09:58:25;3.50;99.90
37702;DHT22;23548;51.196;6.838;2023-01-28T10:04:00;3.50;99.90
37702;DHT22;23548;51.196;6.838;2023-01-28T10:06:45;3.40;99.90
37702;DHT22;23548;51.196;6.838;2023-01-28T10:17:27;3.40;99.90
37702;DHT22;23548;51.196;6.838;2023-01-28T10:20:02;3.10;99.90
37702;DHT22;23548;51.196;6.838;2023-01-28T10:22:36;3.20;99.90
37702;DHT22;23548;51.196;6.838;2023-01-28T10:25:07;3.50;99.90
37702;DHT22;23548;51.196;6.838;2023-01-28T10:27:39;3.50;99.90
37702;DHT22;23548;51.196;6.838;2023-01-28T10:30:24;3.60;99.90
37702;DHT22;23548;51.196;6.838;2023-01-28T10:33:03;3.70;99.90
37702;DHT22;23548;51.196;6.838;2023-01-28T10:35:37;3.60;99.90
37702;DHT22;23548;51.196;6.838;2023-01-28T10:38:07;3.70;99.90
37702;DHT22;23548;51.196;6.838;2023-01-28T10:40:34;3.70;99.90
37702;DHT22;23548;51.196;6.838;2023-01-28T10:43:00;3.80;99.90
37702;DHT22;23548;51.196;6.838;2023-01-28T10:45:30;3.70;99.90
37702;DHT22;23548;51.196;6.838;2023-01-28T10:50:32;3.70;99.90
37702;DHT22;23548;51.196;6.838;2023-01-28T10:53:05;3.60;99.90
37702;DHT22;23548;51.196;6.838;2023-01-28T10:58:19;3.70;99.90
37702;DHT22;23548;51.196;6.838;2023-01-28T11:00:45;3.70;99.90
37702;DHT22;23548;51.196;6.838;2023-01-28T11:03:17;3.80;99.90
37702;DHT22;23548;51.196;6.838;2023-01-28T11:05:50;3.70;99.90
37702;DHT22;23548;51.196;6.838;2023-01-28T11:08:17;3.80;99.90
37702;DHT22;23548;51.196;6.838;2023-01-28T11:10:44;3.80;99.90
37702;DHT22;23548;51.196;6.838;2023-01-28T11:13:19;4.00;99.90
37702;DHT22;23548;51.196;6.838;2023-01-28T11:16:00;3.90;99.90
37702;DHT22;23548;51.196;6.838;2023-01-28T11:18:30;3.70;99.90
37702;DHT22;23548;51.196;6.838;2023-01-28T11:21:01;3.70;99.90
37702;DHT22;23548;51.196;6.838;2023-01-28T11:23:31;3.50;99.90
37702;DHT22;23548;51.196;6.838;2023-01-28T11:26:22;3.70;99.90
37702;DHT22;23548;51.196;6.838;2023-01-28T11:28:48;3.90;99.90
37702;DHT22;23548;51.196;6.838;2023-01-28T11:31:16;4.10;99.90
37702;DHT22;23548;51.196;6.838;2023-01-28T11:36:18;4.00;99.90
37702;DHT22;23548;51.196;6.838;2023-01-28T11:41:37;3.90;99.90
37702;DHT22;23548;51.196;6.838;2023-01-28T11:44:23;3.80;99.90
37702;DHT22;23548;51.196;6.838;2023-01-28T11:53:03;3.40;99.90
37702;DHT22;23548;51.196;6.838;2023-01-28T11:58:21;3.80;99.90
37702;DHT22;23548;51.196;6.838;2023-01-28T12:01:15;3.50;99.90
37702;DHT22;23548;51.196;6.838;2023-01-28T12:07:25;3.50;99.90
37702;DHT22;23548;51.196;6.838;2023-01-28T12:13:01;3.70;99.90
37702;DHT22;23548;51.196;6.838;2023-01-28T12:15:53;3.60;99.90
37702;DHT22;23548;51.196;6.838;2023-01-28T12:18:28;3.80;99.90
37702;DHT22;23548;51.196;6.838;2023-01-28T12:21:06;3.80;99.90
37702;DHT22;23548;51.196;6.838;2023-01-28T12:23:50;3.30;99.90
37702;DHT22;23548;51.196;6.838;2023-01-28T12:29:24;3.60;99.90
37702;DHT22;23548;51.196;6.838;2023-01-28T12:34:54;3.50;99.90
37702;DHT22;23548;51.196;6.838;2023-01-28T12:40:58;3.90;99.90
37702;DHT22;23548;51.196;6.838;2023-01-28T12:46:36;4.30;99.90
37702;DHT22;23548;51.196;6.838;2023-01-28T12:49:05;3.90;99.90
37702;DHT22;23548;51.196;6.838;2023-01-28T12:55:12;4.30;99.90
37702;DHT22;23548;51.196;6.838;2023-01-28T12:57:13;4.30;99.90
37702;DHT22;23548;51.196;6.838;2023-01-28T13:00:22;4.00;99.90
37702;DHT22;23548;51.196;6.838;2023-01-28T13:03:10;3.70;99.90
37702;DHT22;23548;51.196;6.838;2023-01-28T13:05:51;3.60;99.90
37702;DHT22;23548;51.196;6.838;2023-01-28T13:08:22;3.90;99.90
37702;DHT22;23548;51.196;6.838;2023-01-28T13:10:49;3.70;99.90
37702;DHT22;23548;51.196;6.838;2023-01-28T13:13:20;3.40;99.90
37702;DHT22;23548;51.196;6.838;2023-01-28T13:15:47;3.20;99.90
37702;DHT22;23548;51.196;6.838;2023-01-28T13:21:03;3.10;99.90
37702;DHT22;23548;51.196;6.838;2023-01-28T13:28:37;3.70;99.90
37702;DHT22;23548;51.196;6.838;2023-01-28T13:31:08;3.90;99.90
37702;DHT22;23548;51.196;6.838;2023-01-28T13:33:39;3.60;99.90
37702;DHT22;23548;51.196;6.838;2023-01-28T13:38:43;3.40;99.90
37702;DHT22;23548;51.196;6.838;2023-01-28T13:41:10;3.20;99.90
37702;DHT22;23548;51.196;6.838;2023-01-28T13:43:40;3.30;99.90
37702;DHT22;23548;51.196;6.838;2023-01-28T13:46:13;3.60;99.90
37702;DHT22;23548;51.196;6.838;2023-01-28T13:48:53;3.70;99.90
37702;DHT22;23548;51.196;6.838;2023-01-28T13:56:24;3.30;99.90
37702;DHT22;23548;51.196;6.838;2023-01-28T14:01:56;3.40;99.90
37702;DHT22;23548;51.196;6.838;2023-01-28T14:05:07;3.30;99.90
37702;DHT22;23548;51.196;6.838;2023-01-28T14:16:04;3.10;99.90
37702;DHT22;23548;51.196;6.838;2023-01-28T14:18:36;3.10;99.90
37702;DHT22;23548;51.196;6.838;2023-01-28T14:21:19;3.20;99.90
37702;DHT22;23548;51.196;6.838;2023-01-28T14:23:49;3.10;99.90
37702;DHT22;23548;51.196;6.838;2023-01-28T14:31:35;3.00;99.90
37702;DHT22;23548;51.196;6.838;2023-01-28T14:34:25;3.10;99.90
37702;DHT22;23548;51.196;6.838;2023-01-28T14:36:55;3.20;99.90
37702;DHT22;23548;51.196;6.838;2023-01-28T14:42:22;3.60;99.90
37702;DHT22;23548;51.196;6.838;2023-01-28T14:53:44;4.20;99.90
37702;DHT22;23548;51.196;6.838;2023-01-28T14:58:59;3.70;99.90
37702;DHT22;23548;51.196;6.838;2023-01-28T15:01:29;4.30;99.90
37702;DHT22;23548;51.196;6.838;2023-01-28T15:03:56;5.00;99.90
37702;DHT22;23548;51.196;6.838;2023-01-28T15:06:32;5.50;99.90
37702;DHT22;23548;51.196;6.838;2023-01-28T15:09:07;6.10;99.90
37702;DHT22;23548;51.196;6.838;2023-01-28T15:11:37;6.70;99.90
37702;DHT22;23548;51.196;6.838;2023-01-28T15:14:07;7.40;99.90
37702;DHT22;23548;51.196;6.838;2023-01-28T15:16:36;7.80;99.90
37702;DHT22;23548;51.196;6.838;2023-01-28T15:19:06;6.90;99.90
37702;DHT22;23548;51.196;6.838;2023-01-28T15:21:34;5.70;99.90
37702;DHT22;23548;51.196;6.838;2023-01-28T15:24:00;4.30;99.90
37702;DHT22;23548;51.196;6.838;2023-01-28T15:26:30;3.50;99.90
37702;DHT22;23548;51.196;6.838;2023-01-28T15:28:57;3.10;99.90
37702;DHT22;23548;51.196;6.838;2023-01-28T15:31:27;3.00;99.90
37702;DHT22;23548;51.196;6.838;2023-01-28T15:34:14;2.80;99.90
37702;DHT22;23548;51.196;6.838;2023-01-28T15:36:41;2.50;99.90
37702;DHT22;23548;51.196;6.838;2023-01-28T15:41:46;2.30;99.90
37702;DHT22;23548;51.196;6.838;2023-01-28T15:44:17;2.20;99.90
37702;DHT22;23548;51.196;6.838;2023-01-28T15:46:44;2.10;99.90
37702;DHT22;23548;51.196;6.838;2023-01-28T15:49:13;2.10;99.90
37702;DHT22;23548;51.196;6.838;2023-01-28T15:51:40;2.10;99.90
37702;DHT22;23548;51.196;6.838;2023-01-28T15:54:08;2.50;99.90
37702;DHT22;23548;51.196;6.838;2023-01-28T15:56:34;1.90;99.90
37702;DHT22;23548;51.196;6.838;2023-01-28T15:59:24;1.90;99.90
37702;DHT22;23548;51.196;6.838;2023-01-28T16:02:20;1.80;99.90
37702;DHT22;23548;51.196;6.838;2023-01-28T16:05:00;1.80;99.90
37702;DHT22;23548;51.196;6.838;2023-01-28T16:07:31;1.80;99.90
37702;DHT22;23548;51.196;6.838;2023-01-28T16:09:59;1.90;99.90
37702;DHT22;23548;51.196;6.838;2023-01-28T16:12:26;2.00;99.90
37702;DHT22;23548;51.196;6.838;2023-01-28T16:15:00;2.10;99.90
37702;DHT22;23548;51.196;6.838;2023-01-28T16:17:38;2.10;99.90
37702;DHT22;23548;51.196;6.838;2023-01-28T16:20:18;2.10;99.90
37702;DHT22;23548;51.196;6.838;2023-01-28T16:22:45;2.20;99.90
37702;DHT22;23548;51.196;6.838;2023-01-28T16:25:31;2.30;99.90
37702;DHT22;23548;51.196;6.838;2023-01-28T16:27:59;2.30;99.90
37702;DHT22;23548;51.196;6.838;2023-01-28T16:30:26;2.30;99.90
37702;DHT22;23548;51.196;6.838;2023-01-28T16:32:52;2.30;99.90
37702;DHT22;23548;51.196;6.838;2023-01-28T16:35:27;2.30;99.90
37702;DHT22;23548;51.196;6.838;2023-01-28T16:37:53;2.30;99.90
37702;DHT22;23548;51.196;6.838;2023-01-28T16:40:21;2.20;99.90
37702;DHT22;23548;51.196;6.838;2023-01-28T16:42:47;2.20;99.90
37702;DHT22;23548;51.196;6.838;2023-01-28T16:45:17;2.10;99.90
37702;DHT22;23548;51.196;6.838;2023-01-28T16:47:44;1.90;99.90
37702;DHT22;23548;51.196;6.838;2023-01-28T16:50:10;1.80;99.90
37702;DHT22;23548;51.196;6.838;2023-01-28T16:52:37;1.80;99.90
37702;DHT22;23548;51.196;6.838;2023-01-28T16:55:03;1.60;99.90
37702;DHT22;23548;51.196;6.838;2023-01-28T16:57:31;1.50;99.90
37702;DHT22;23548;51.196;6.838;2023-01-28T16:59:59;1.50;99.90
37702;DHT22;23548;51.196;6.838;2023-01-28T17:02:25;1.50;99.90
37702;DHT22;23548;51.196;6.838;2023-01-28T17:04:51;1.40;99.90
37702;DHT22;23548;51.196;6.838;2023-01-28T17:07:17;1.40;99.90
37702;DHT22;23548;51.196;6.838;2023-01-28T17:09:42;1.30;99.90
37702;DHT22;23548;51.196;6.838;2023-01-28T17:12:08;1.20;99.90
37702;DHT22;23548;51.196;6.838;2023-01-28T17:14:34;1.20;99.90
37702;DHT22;23548;51.196;6.838;2023-01-28T17:17:00;1.30;99.90
37702;DHT22;23548;51.196;6.838;2023-01-28T17:19:25;1.20;99.90
37702;DHT22;23548;51.196;6.838;2023-01-28T17:21:51;1.10;99.90
37702;DHT22;23548;51.196;6.838;2023-01-28T17:24:17;1.00;99.90
37702;DHT22;23548;51.196;6.838;2023-01-28T17:26:43;0.90;99.90
37702;DHT22;23548;51.196;6.838;2023-01-28T17:29:08;0.90;99.90
37702;DHT22;23548;51.196;6.838;2023-01-28T17:31:34;0.80;99.90
37702;DHT22;23548;51.196;6.838;2023-01-28T17:34:00;0.80;99.90
37702;DHT22;23548;51.196;6.838;2023-01-28T17:36:27;0.70;99.90
37702;DHT22;23548;51.196;6.838;2023-01-28T17:38:53;0.60;99.90
37702;DHT22;23548;51.196;6.838;2023-01-28T17:41:20;0.60;99.90
37702;DHT22;23548;51.196;6.838;2023-01-28T17:43:53;0.60;99.90
37702;DHT22;23548;51.196;6.838;2023-01-28T17:46:20;0.60;99.90
37702;DHT22;23548;51.196;6.838;2023-01-28T17:48:46;0.40;99.90
37702;DHT22;23548;51.196;6.838;2023-01-28T17:51:13;0.40;99.90
37702;DHT22;23548;51.196;6.838;2023-01-28T17:53:53;0.30;99.90
37702;DHT22;23548;51.196;6.838;2023-01-28T17:56:24;0.20;99.90
37702;DHT22;23548;51.196;6.838;2023-01-28T17:58:52;0.30;99.90
37702;DHT22;23548;51.196;6.838;2023-01-28T18:01:19;0.30;99.90
37702;DHT22;23548;51.196;6.838;2023-01-28T18:03:45;0.20;99.90
37702;DHT22;23548;51.196;6.838;2023-01-28T18:06:11;0.20;99.90
37702;DHT22;23548;51.196;6.838;2023-01-28T18:08:37;0.20;99.90
37702;DHT22;23548;51.196;6.838;2023-01-28T18:11:06;0.20;99.90
37702;DHT22;23548;51.196;6.838;2023-01-28T18:13:37;0.20;99.90